Início
Estação Aeroclube
Estação São Gotardo
Temperatura
Umidade
Pressão Atmosférica
Vento
Precipitação
Configuração do gráfico
Período
v
     
 
v
   
Aplicar
Linhas e valores
etiquetasséries
The Temperatura média no período chart showing Mínima series, Máxima series, Média series, Sensação térmica series.
   
Hora
Temperatura média
Temperatura máxima
Temperatura mínima
Sensação térmica
Data: 04/07/2020
 09:00:007,377,747,114,62
 08:00:006,517,265,484,27
 07:00:005,235,84,823,53
 06:00:005,866,415,573,04
 05:00:006,436,626,033,73
 04:00:006,26,625,943,99
 03:00:006,496,656,33,92
 02:00:006,386,656,174,33
 01:00:006,146,545,463,68
 00:00:005,745,915,463,78
Data: 03/07/2020
 23:00:006,317,655,74,95
 22:00:007,457,747,226,71
 21:00:007,467,747,256,67
 20:00:007,57,767,317,03
 19:00:007,778,037,517,82
 18:00:007,938,487,688,34
 17:00:008,989,758,359,17
 16:00:009,8510,379,559,12
 15:00:009,8710,379,48,83
 14:00:009,119,988,257,83
 13:00:007,588,595,316,06
 12:00:005,135,844,383,07
 11:00:004,064,923,021,65
 10:00:002,853,422,33-0,04
 09:00:002,012,531,35-0,58
 08:00:000,751,450,27-1,67
 07:00:000,090,35-0,23-2,03
 06:00:00-0,44-0,09-0,69-2,39
 05:00:00-0,280,12-0,61-1,86
 04:00:000,952-0,050,25
 03:00:002,423,011,830,61
 02:00:0033,392,661,93
 01:00:003,373,63,143,68
 00:00:003,543,883,224,02
Data: 02/07/2020 (Continua na próxima página)
 23:00:003,623,883,43,14
 22:00:003,573,723,442
 21:00:003,724,13,51,83
 20:00:004,454,883,942,74
 19:00:004,925,294,743,8
 18:00:005,315,465,075,17
 17:00:006,117,265,454,97
 16:00:007,057,376,615,18
 15:00:006,757,086,544,17
 14:00:006,496,996,063,68
 13:00:006,166,455,843,49
 12:00:006,056,35,753,23
 11:00:006,046,385,753,14
Página 1 de 4 (183 itens)
Anterior
[1]
2
3
4
Próxima